sensor_id;sensor_type;location;lat;lon;timestamp;temperature;humidity
22940;DHT22;11636;52.086;5.090;2023-04-09T00:00:36;9.40;99.90
22940;DHT22;11636;52.086;5.090;2023-04-09T00:03:23;9.40;99.90
22940;DHT22;11636;52.086;5.090;2023-04-09T00:06:17;9.40;99.90
22940;DHT22;11636;52.086;5.090;2023-04-09T00:09:04;9.40;99.90
22940;DHT22;11636;52.086;5.090;2023-04-09T00:11:58;9.50;99.90
22940;DHT22;11636;52.086;5.090;2023-04-09T00:14:52;9.50;99.90
22940;DHT22;11636;52.086;5.090;2023-04-09T00:17:39;9.50;99.90
22940;DHT22;11636;52.086;5.090;2023-04-09T00:20:33;9.60;99.90
22940;DHT22;11636;52.086;5.090;2023-04-09T00:23:27;9.50;99.90
22940;DHT22;11636;52.086;5.090;2023-04-09T00:26:14;9.50;99.90
22940;DHT22;11636;52.086;5.090;2023-04-09T00:29:08;9.50;99.90
22940;DHT22;11636;52.086;5.090;2023-04-09T00:32:02;9.50;99.90
22940;DHT22;11636;52.086;5.090;2023-04-09T00:34:49;9.50;99.90
22940;DHT22;11636;52.086;5.090;2023-04-09T00:37:43;9.50;99.90
22940;DHT22;11636;52.086;5.090;2023-04-09T00:40:30;9.50;99.90
22940;DHT22;11636;52.086;5.090;2023-04-09T00:43:24;9.60;99.90
22940;DHT22;11636;52.086;5.090;2023-04-09T00:46:18;9.60;99.90
22940;DHT22;11636;52.086;5.090;2023-04-09T00:49:05;9.60;99.90
22940;DHT22;11636;52.086;5.090;2023-04-09T00:51:59;9.60;99.90
22940;DHT22;11636;52.086;5.090;2023-04-09T00:54:53;9.60;99.90
22940;DHT22;11636;52.086;5.090;2023-04-09T00:57:48;9.60;99.90
22940;DHT22;11636;52.086;5.090;2023-04-09T01:00:35;9.60;99.90
22940;DHT22;11636;52.086;5.090;2023-04-09T01:03:29;9.60;99.90
22940;DHT22;11636;52.086;5.090;2023-04-09T01:09:52;9.60;99.90
22940;DHT22;11636;52.086;5.090;2023-04-09T01:13:03;9.60;99.90
22940;DHT22;11636;52.086;5.090;2023-04-09T01:15:55;9.60;99.90
22940;DHT22;11636;52.086;5.090;2023-04-09T01:18:58;9.60;99.90
22940;DHT22;11636;52.086;5.090;2023-04-09T01:21:45;9.60;99.90
22940;DHT22;11636;52.086;5.090;2023-04-09T01:25:08;9.60;99.90
22940;DHT22;11636;52.086;5.090;2023-04-09T01:28:36;9.60;99.90
22940;DHT22;11636;52.086;5.090;2023-04-09T01:31:34;9.60;99.90
22940;DHT22;11636;52.086;5.090;2023-04-09T01:34:28;9.60;99.90
22940;DHT22;11636;52.086;5.090;2023-04-09T01:37:23;9.60;99.90
22940;DHT22;11636;52.086;5.090;2023-04-09T01:40:18;9.60;99.90
22940;DHT22;11636;52.086;5.090;2023-04-09T01:43:06;9.60;99.90
22940;DHT22;11636;52.086;5.090;2023-04-09T01:46:01;9.70;99.90
22940;DHT22;11636;52.086;5.090;2023-04-09T01:48:51;9.70;99.90
22940;DHT22;11636;52.086;5.090;2023-04-09T01:51:46;9.70;99.90
22940;DHT22;11636;52.086;5.090;2023-04-09T01:54:34;9.70;99.90
22940;DHT22;11636;52.086;5.090;2023-04-09T01:57:28;9.70;99.90
22940;DHT22;11636;52.086;5.090;2023-04-09T02:00:16;9.70;99.90
22940;DHT22;11636;52.086;5.090;2023-04-09T02:06:13;9.70;99.90
22940;DHT22;11636;52.086;5.090;2023-04-09T02:09:08;9.70;99.90
22940;DHT22;11636;52.086;5.090;2023-04-09T02:12:04;9.70;99.90
22940;DHT22;11636;52.086;5.090;2023-04-09T02:14:59;9.70;99.90
22940;DHT22;11636;52.086;5.090;2023-04-09T02:17:54;9.70;99.90
22940;DHT22;11636;52.086;5.090;2023-04-09T02:20:48;9.70;99.90
22940;DHT22;11636;52.086;5.090;2023-04-09T02:23:42;9.70;99.90
22940;DHT22;11636;52.086;5.090;2023-04-09T02:26:29;9.70;99.90
22940;DHT22;11636;52.086;5.090;2023-04-09T02:29:23;9.70;99.90
22940;DHT22;11636;52.086;5.090;2023-04-09T02:32:10;9.70;99.90
22940;DHT22;11636;52.086;5.090;2023-04-09T02:35:04;9.70;99.90
22940;DHT22;11636;52.086;5.090;2023-04-09T02:37:58;9.70;99.90
22940;DHT22;11636;52.086;5.090;2023-04-09T02:40:45;9.70;99.90
22940;DHT22;11636;52.086;5.090;2023-04-09T02:44:10;9.70;99.90
22940;DHT22;11636;52.086;5.090;2023-04-09T02:47:10;9.70;99.90
22940;DHT22;11636;52.086;5.090;2023-04-09T02:49:57;9.70;99.90
22940;DHT22;11636;52.086;5.090;2023-04-09T02:52:51;9.70;99.90
22940;DHT22;11636;52.086;5.090;2023-04-09T02:55:38;9.70;99.90
22940;DHT22;11636;52.086;5.090;2023-04-09T02:58:32;9.70;99.90
22940;DHT22;11636;52.086;5.090;2023-04-09T03:01:20;9.70;99.90
22940;DHT22;11636;52.086;5.090;2023-04-09T03:04:13;9.70;99.90
22940;DHT22;11636;52.086;5.090;2023-04-09T03:07:01;9.70;99.90
22940;DHT22;11636;52.086;5.090;2023-04-09T03:09:54;9.70;99.90
22940;DHT22;11636;52.086;5.090;2023-04-09T03:12:42;9.70;99.90
22940;DHT22;11636;52.086;5.090;2023-04-09T03:15:36;9.70;99.90
22940;DHT22;11636;52.086;5.090;2023-04-09T03:18:23;9.70;99.90
22940;DHT22;11636;52.086;5.090;2023-04-09T03:21:17;9.70;99.90
22940;DHT22;11636;52.086;5.090;2023-04-09T03:24:04;9.70;99.90
22940;DHT22;11636;52.086;5.090;2023-04-09T03:26:58;9.70;99.90
22940;DHT22;11636;52.086;5.090;2023-04-09T03:29:55;9.70;99.90
22940;DHT22;11636;52.086;5.090;2023-04-09T03:32:42;9.70;99.90
22940;DHT22;11636;52.086;5.090;2023-04-09T03:35:35;9.70;99.90
22940;DHT22;11636;52.086;5.090;2023-04-09T03:38:29;9.70;99.90
22940;DHT22;11636;52.086;5.090;2023-04-09T03:41:25;9.70;99.90
22940;DHT22;11636;52.086;5.090;2023-04-09T03:44:12;9.70;99.90
22940;DHT22;11636;52.086;5.090;2023-04-09T03:47:06;9.70;99.90
22940;DHT22;11636;52.086;5.090;2023-04-09T03:50:00;9.70;99.90
22940;DHT22;11636;52.086;5.090;2023-04-09T03:52:53;9.70;99.90
22940;DHT22;11636;52.086;5.090;2023-04-09T03:55:40;9.70;99.90
22940;DHT22;11636;52.086;5.090;2023-04-09T03:58:35;9.60;99.90
22940;DHT22;11636;52.086;5.090;2023-04-09T04:01:28;9.60;99.90
22940;DHT22;11636;52.086;5.090;2023-04-09T04:04:15;9.60;99.90
22940;DHT22;11636;52.086;5.090;2023-04-09T04:07:10;9.70;99.90
22940;DHT22;11636;52.086;5.090;2023-04-09T04:10:07;9.60;99.90
22940;DHT22;11636;52.086;5.090;2023-04-09T04:12:54;9.60;99.90
22940;DHT22;11636;52.086;5.090;2023-04-09T04:15:47;9.60;99.90
22940;DHT22;11636;52.086;5.090;2023-04-09T04:18:41;9.60;99.90
22940;DHT22;11636;52.086;5.090;2023-04-09T04:21:28;9.60;99.90
22940;DHT22;11636;52.086;5.090;2023-04-09T04:24:23;9.60;99.90
22940;DHT22;11636;52.086;5.090;2023-04-09T04:27:10;9.60;99.90
22940;DHT22;11636;52.086;5.090;2023-04-09T04:30:04;9.60;99.90
22940;DHT22;11636;52.086;5.090;2023-04-09T04:32:57;9.60;99.90
22940;DHT22;11636;52.086;5.090;2023-04-09T04:35:45;9.60;99.90
22940;DHT22;11636;52.086;5.090;2023-04-09T04:38:39;9.60;99.90
22940;DHT22;11636;52.086;5.090;2023-04-09T04:41:32;9.60;99.90
22940;DHT22;11636;52.086;5.090;2023-04-09T04:44:26;9.60;99.90
22940;DHT22;11636;52.086;5.090;2023-04-09T04:47:13;9.60;99.90
22940;DHT22;11636;52.086;5.090;2023-04-09T04:50:08;9.60;99.90
22940;DHT22;11636;52.086;5.090;2023-04-09T04:53:01;9.60;99.90
22940;DHT22;11636;52.086;5.090;2023-04-09T04:55:49;9.60;99.90
22940;DHT22;11636;52.086;5.090;2023-04-09T04:58:42;9.60;99.90
22940;DHT22;11636;52.086;5.090;2023-04-09T05:01:37;9.60;99.90
22940;DHT22;11636;52.086;5.090;2023-04-09T05:04:24;9.60;99.90
22940;DHT22;11636;52.086;5.090;2023-04-09T05:07:17;9.60;99.90
22940;DHT22;11636;52.086;5.090;2023-04-09T05:10:05;9.60;99.90
22940;DHT22;11636;52.086;5.090;2023-04-09T05:12:59;9.60;99.90
22940;DHT22;11636;52.086;5.090;2023-04-09T05:15:53;9.60;99.90
22940;DHT22;11636;52.086;5.090;2023-04-09T05:18:41;9.60;99.90
22940;DHT22;11636;52.086;5.090;2023-04-09T05:21:34;9.60;99.90
22940;DHT22;11636;52.086;5.090;2023-04-09T05:24:21;9.60;99.90
22940;DHT22;11636;52.086;5.090;2023-04-09T05:27:15;9.60;99.90
22940;DHT22;11636;52.086;5.090;2023-04-09T05:30:12;9.60;99.90
22940;DHT22;11636;52.086;5.090;2023-04-09T05:32:59;9.60;99.90
22940;DHT22;11636;52.086;5.090;2023-04-09T05:35:52;9.60;99.90
22940;DHT22;11636;52.086;5.090;2023-04-09T05:38:40;9.60;99.90
22940;DHT22;11636;52.086;5.090;2023-04-09T05:41:33;9.70;99.90
22940;DHT22;11636;52.086;5.090;2023-04-09T05:44:23;9.70;99.90
22940;DHT22;11636;52.086;5.090;2023-04-09T05:47:16;9.70;99.90
22940;DHT22;11636;52.086;5.090;2023-04-09T05:50:04;9.70;99.90
22940;DHT22;11636;52.086;5.090;2023-04-09T05:52:58;9.80;99.90
22940;DHT22;11636;52.086;5.090;2023-04-09T05:55:46;9.70;99.90
22940;DHT22;11636;52.086;5.090;2023-04-09T05:58:42;9.70;99.90
22940;DHT22;11636;52.086;5.090;2023-04-09T06:01:29;9.80;99.90
22940;DHT22;11636;52.086;5.090;2023-04-09T06:04:23;9.80;99.90
22940;DHT22;11636;52.086;5.090;2023-04-09T06:07:10;9.80;99.90
22940;DHT22;11636;52.086;5.090;2023-04-09T06:10:04;9.80;99.90
22940;DHT22;11636;52.086;5.090;2023-04-09T06:12:58;9.80;99.90
22940;DHT22;11636;52.086;5.090;2023-04-09T06:15:52;9.80;99.90
22940;DHT22;11636;52.086;5.090;2023-04-09T06:18:39;9.80;99.90
22940;DHT22;11636;52.086;5.090;2023-04-09T06:21:35;9.80;99.90
22940;DHT22;11636;52.086;5.090;2023-04-09T06:24:22;9.80;99.90
22940;DHT22;11636;52.086;5.090;2023-04-09T06:27:16;9.80;99.90
22940;DHT22;11636;52.086;5.090;2023-04-09T06:30:11;9.80;99.90
22940;DHT22;11636;52.086;5.090;2023-04-09T06:32:58;9.80;99.90
22940;DHT22;11636;52.086;5.090;2023-04-09T06:35:52;9.80;99.90
22940;DHT22;11636;52.086;5.090;2023-04-09T06:38:46;9.80;99.90
22940;DHT22;11636;52.086;5.090;2023-04-09T06:41:33;9.80;99.90
22940;DHT22;11636;52.086;5.090;2023-04-09T06:44:26;9.80;99.90
22940;DHT22;11636;52.086;5.090;2023-04-09T06:47:21;9.80;99.90
22940;DHT22;11636;52.086;5.090;2023-04-09T06:50:08;9.80;99.90
22940;DHT22;11636;52.086;5.090;2023-04-09T06:53:02;9.80;99.90
22940;DHT22;11636;52.086;5.090;2023-04-09T06:55:49;9.90;99.90
22940;DHT22;11636;52.086;5.090;2023-04-09T06:58:44;9.90;99.90
22940;DHT22;11636;52.086;5.090;2023-04-09T07:01:38;9.90;99.90
22940;DHT22;11636;52.086;5.090;2023-04-09T07:04:33;9.90;99.90
22940;DHT22;11636;52.086;5.090;2023-04-09T07:07:20;9.90;99.90
22940;DHT22;11636;52.086;5.090;2023-04-09T07:10:15;9.90;99.90
22940;DHT22;11636;52.086;5.090;2023-04-09T07:13:02;9.90;99.90
22940;DHT22;11636;52.086;5.090;2023-04-09T07:15:56;9.90;99.90
22940;DHT22;11636;52.086;5.090;2023-04-09T07:18:43;9.90;99.90
22940;DHT22;11636;52.086;5.090;2023-04-09T07:21:37;10.00;99.90
22940;DHT22;11636;52.086;5.090;2023-04-09T07:24:31;10.00;99.90
22940;DHT22;11636;52.086;5.090;2023-04-09T07:27:26;10.00;99.90
22940;DHT22;11636;52.086;5.090;2023-04-09T07:30:13;10.10;99.90
22940;DHT22;11636;52.086;5.090;2023-04-09T07:33:08;10.10;99.90
22940;DHT22;11636;52.086;5.090;2023-04-09T07:36:02;10.10;99.90
22940;DHT22;11636;52.086;5.090;2023-04-09T07:38:56;10.20;99.90
22940;DHT22;11636;52.086;5.090;2023-04-09T07:41:50;10.30;99.90
22940;DHT22;11636;52.086;5.090;2023-04-09T07:44:44;10.30;99.90
22940;DHT22;11636;52.086;5.090;2023-04-09T07:47:31;10.30;99.90
22940;DHT22;11636;52.086;5.090;2023-04-09T07:50:25;10.40;99.90
22940;DHT22;11636;52.086;5.090;2023-04-09T07:53:12;10.40;99.90
22940;DHT22;11636;52.086;5.090;2023-04-09T07:56:07;10.60;99.90
22940;DHT22;11636;52.086;5.090;2023-04-09T07:58:54;10.70;99.90
22940;DHT22;11636;52.086;5.090;2023-04-09T08:01:48;10.70;99.90
22940;DHT22;11636;52.086;5.090;2023-04-09T08:04:35;10.80;99.90
22940;DHT22;11636;52.086;5.090;2023-04-09T08:07:29;10.90;99.90
22940;DHT22;11636;52.086;5.090;2023-04-09T08:10:16;11.00;99.90
22940;DHT22;11636;52.086;5.090;2023-04-09T08:13:10;11.10;99.90
22940;DHT22;11636;52.086;5.090;2023-04-09T08:16:01;11.30;99.90
22940;DHT22;11636;52.086;5.090;2023-04-09T08:18:56;11.40;99.90
22940;DHT22;11636;52.086;5.090;2023-04-09T08:21:43;11.50;99.90
22940;DHT22;11636;52.086;5.090;2023-04-09T08:24:37;11.50;99.90
22940;DHT22;11636;52.086;5.090;2023-04-09T08:27:32;11.70;99.90
22940;DHT22;11636;52.086;5.090;2023-04-09T08:30:20;11.90;99.90
22940;DHT22;11636;52.086;5.090;2023-04-09T08:33:14;12.10;99.90
22940;DHT22;11636;52.086;5.090;2023-04-09T08:36:01;12.20;99.90
22940;DHT22;11636;52.086;5.090;2023-04-09T08:38:55;12.50;99.90
22940;DHT22;11636;52.086;5.090;2023-04-09T08:41:42;12.60;99.90
22940;DHT22;11636;52.086;5.090;2023-04-09T08:44:36;12.80;99.90
22940;DHT22;11636;52.086;5.090;2023-04-09T08:47:31;12.90;99.90
22940;DHT22;11636;52.086;5.090;2023-04-09T08:50:26;13.00;99.90
22940;DHT22;11636;52.086;5.090;2023-04-09T08:53:14;13.20;99.90
22940;DHT22;11636;52.086;5.090;2023-04-09T08:56:09;13.40;99.90
22940;DHT22;11636;52.086;5.090;2023-04-09T08:58:56;13.70;99.90
22940;DHT22;11636;52.086;5.090;2023-04-09T09:02:05;13.80;99.90
22940;DHT22;11636;52.086;5.090;2023-04-09T09:05:00;13.90;99.90
22940;DHT22;11636;52.086;5.090;2023-04-09T09:07:53;14.10;99.90
22940;DHT22;11636;52.086;5.090;2023-04-09T09:10:47;14.20;99.90
22940;DHT22;11636;52.086;5.090;2023-04-09T09:13:41;14.30;99.90
22940;DHT22;11636;52.086;5.090;2023-04-09T09:16:38;14.30;99.90
22940;DHT22;11636;52.086;5.090;2023-04-09T09:19:35;14.20;99.90
22940;DHT22;11636;52.086;5.090;2023-04-09T09:22:50;14.10;99.90
22940;DHT22;11636;52.086;5.090;2023-04-09T09:25:42;14.00;99.90
22940;DHT22;11636;52.086;5.090;2023-04-09T09:28:36;14.00;99.90
22940;DHT22;11636;52.086;5.090;2023-04-09T09:31:23;14.30;99.90
22940;DHT22;11636;52.086;5.090;2023-04-09T09:34:20;14.50;99.90
22940;DHT22;11636;52.086;5.090;2023-04-09T09:37:33;14.70;99.90
22940;DHT22;11636;52.086;5.090;2023-04-09T09:40:26;15.00;99.90
22940;DHT22;11636;52.086;5.090;2023-04-09T09:43:39;15.30;99.90
22940;DHT22;11636;52.086;5.090;2023-04-09T09:46:35;15.40;99.90
22940;DHT22;11636;52.086;5.090;2023-04-09T09:49:29;15.50;99.90
22940;DHT22;11636;52.086;5.090;2023-04-09T09:52:24;15.30;99.90
22940;DHT22;11636;52.086;5.090;2023-04-09T09:55:13;15.30;99.90
22940;DHT22;11636;52.086;5.090;2023-04-09T09:58:15;15.40;99.90
22940;DHT22;11636;52.086;5.090;2023-04-09T10:01:07;15.40;99.90
22940;DHT22;11636;52.086;5.090;2023-04-09T10:04:05;15.30;99.90
22940;DHT22;11636;52.086;5.090;2023-04-09T10:06:53;15.20;99.90
22940;DHT22;11636;52.086;5.090;2023-04-09T10:09:49;15.10;99.90
22940;DHT22;11636;52.086;5.090;2023-04-09T10:12:37;15.20;99.90
22940;DHT22;11636;52.086;5.090;2023-04-09T10:15:34;15.20;99.90
22940;DHT22;11636;52.086;5.090;2023-04-09T10:18:21;15.20;99.90
22940;DHT22;11636;52.086;5.090;2023-04-09T10:21:44;15.30;99.90
22940;DHT22;11636;52.086;5.090;2023-04-09T10:24:33;15.30;99.90
22940;DHT22;11636;52.086;5.090;2023-04-09T10:27:28;15.40;99.90
22940;DHT22;11636;52.086;5.090;2023-04-09T10:30:35;15.20;99.90
22940;DHT22;11636;52.086;5.090;2023-04-09T10:33:23;15.10;99.90
22940;DHT22;11636;52.086;5.090;2023-04-09T10:36:19;15.00;99.90
22940;DHT22;11636;52.086;5.090;2023-04-09T10:39:14;14.90;99.90
22940;DHT22;11636;52.086;5.090;2023-04-09T10:42:07;15.10;99.90
22940;DHT22;11636;52.086;5.090;2023-04-09T10:45:14;15.40;99.90
22940;DHT22;11636;52.086;5.090;2023-04-09T10:48:12;15.50;99.90
22940;DHT22;11636;52.086;5.090;2023-04-09T10:51:02;15.70;99.90
22940;DHT22;11636;52.086;5.090;2023-04-09T10:53:58;15.70;99.90
22940;DHT22;11636;52.086;5.090;2023-04-09T10:59:59;15.80;99.90
22940;DHT22;11636;52.086;5.090;2023-04-09T11:06:00;16.20;99.90
22940;DHT22;11636;52.086;5.090;2023-04-09T11:09:00;16.00;99.90
22940;DHT22;11636;52.086;5.090;2023-04-09T11:11:52;16.00;99.90
22940;DHT22;11636;52.086;5.090;2023-04-09T11:14:46;16.00;99.90
22940;DHT22;11636;52.086;5.090;2023-04-09T11:17:36;16.00;99.90
22940;DHT22;11636;52.086;5.090;2023-04-09T11:20:29;16.20;99.90
22940;DHT22;11636;52.086;5.090;2023-04-09T11:23:17;16.40;99.90
22940;DHT22;11636;52.086;5.090;2023-04-09T11:26:11;16.70;99.90
22940;DHT22;11636;52.086;5.090;2023-04-09T11:29:08;17.00;99.90
22940;DHT22;11636;52.086;5.090;2023-04-09T11:32:03;17.00;99.90
22940;DHT22;11636;52.086;5.090;2023-04-09T11:34:53;17.10;99.90
22940;DHT22;11636;52.086;5.090;2023-04-09T11:37:47;17.10;99.90
22940;DHT22;11636;52.086;5.090;2023-04-09T11:40:43;17.30;99.90
22940;DHT22;11636;52.086;5.090;2023-04-09T11:43:37;17.50;99.90
22940;DHT22;11636;52.086;5.090;2023-04-09T11:46:31;17.80;99.90
22940;DHT22;11636;52.086;5.090;2023-04-09T11:49:20;17.80;99.90
22940;DHT22;11636;52.086;5.090;2023-04-09T11:52:14;17.70;99.90
22940;DHT22;11636;52.086;5.090;2023-04-09T11:55:05;17.80;99.90
22940;DHT22;11636;52.086;5.090;2023-04-09T11:57:59;18.00;99.90
22940;DHT22;11636;52.086;5.090;2023-04-09T12:00:47;18.20;99.90
22940;DHT22;11636;52.086;5.090;2023-04-09T12:03:41;18.40;99.90
22940;DHT22;11636;52.086;5.090;2023-04-09T12:06:28;18.20;99.90
22940;DHT22;11636;52.086;5.090;2023-04-09T12:09:22;17.90;99.90
22940;DHT22;11636;52.086;5.090;2023-04-09T12:12:09;17.80;99.90
22940;DHT22;11636;52.086;5.090;2023-04-09T12:15:18;18.10;99.90
22940;DHT22;11636;52.086;5.090;2023-04-09T12:18:11;18.60;99.90
22940;DHT22;11636;52.086;5.090;2023-04-09T12:21:04;18.70;99.90
22940;DHT22;11636;52.086;5.090;2023-04-09T12:23:52;18.50;99.90
22940;DHT22;11636;52.086;5.090;2023-04-09T12:26:47;18.30;99.90
22940;DHT22;11636;52.086;5.090;2023-04-09T12:29:40;18.30;99.90
22940;DHT22;11636;52.086;5.090;2023-04-09T12:32:34;18.20;99.90
22940;DHT22;11636;52.086;5.090;2023-04-09T12:35:28;18.00;99.90
22940;DHT22;11636;52.086;5.090;2023-04-09T12:38:22;17.80;99.90
22940;DHT22;11636;52.086;5.090;2023-04-09T12:41:16;17.50;99.90
22940;DHT22;11636;52.086;5.090;2023-04-09T12:44:10;17.30;99.90
22940;DHT22;11636;52.086;5.090;2023-04-09T12:46:57;17.20;99.90
22940;DHT22;11636;52.086;5.090;2023-04-09T12:49:52;17.10;99.90
22940;DHT22;11636;52.086;5.090;2023-04-09T12:52:39;17.40;99.90
22940;DHT22;11636;52.086;5.090;2023-04-09T12:55:33;18.10;99.90
22940;DHT22;11636;52.086;5.090;2023-04-09T12:58:20;18.50;99.90
22940;DHT22;11636;52.086;5.090;2023-04-09T13:01:14;18.40;99.60
22940;DHT22;11636;52.086;5.090;2023-04-09T13:04:01;18.50;99.90
22940;DHT22;11636;52.086;5.090;2023-04-09T13:06:55;19.00;99.50
22940;DHT22;11636;52.086;5.090;2023-04-09T13:09:44;19.50;97.90
22940;DHT22;11636;52.086;5.090;2023-04-09T13:12:37;19.70;96.70
22940;DHT22;11636;52.086;5.090;2023-04-09T13:15:24;19.80;95.90
22940;DHT22;11636;52.086;5.090;2023-04-09T13:18:18;19.50;95.30
22940;DHT22;11636;52.086;5.090;2023-04-09T13:21:12;19.00;95.60
22940;DHT22;11636;52.086;5.090;2023-04-09T13:24:10;18.40;96.00
22940;DHT22;11636;52.086;5.090;2023-04-09T13:26:57;18.20;97.00
22940;DHT22;11636;52.086;5.090;2023-04-09T13:29:51;18.30;95.80
22940;DHT22;11636;52.086;5.090;2023-04-09T13:32:38;18.70;95.70
22940;DHT22;11636;52.086;5.090;2023-04-09T13:35:32;19.10;94.90
22940;DHT22;11636;52.086;5.090;2023-04-09T13:38:26;19.50;93.80
22940;DHT22;11636;52.086;5.090;2023-04-09T13:41:14;19.70;93.40
22940;DHT22;11636;52.086;5.090;2023-04-09T13:44:07;19.90;93.10
22940;DHT22;11636;52.086;5.090;2023-04-09T13:46:55;19.60;92.90
22940;DHT22;11636;52.086;5.090;2023-04-09T13:49:48;19.50;93.00
22940;DHT22;11636;52.086;5.090;2023-04-09T13:52:37;19.50;92.70
22940;DHT22;11636;52.086;5.090;2023-04-09T13:55:30;19.50;92.70
22940;DHT22;11636;52.086;5.090;2023-04-09T13:58:17;19.60;92.60
22940;DHT22;11636;52.086;5.090;2023-04-09T14:01:13;20.00;92.30
22940;DHT22;11636;52.086;5.090;2023-04-09T14:04:06;20.50;92.20
22940;DHT22;11636;52.086;5.090;2023-04-09T14:07:00;20.30;91.10
22940;DHT22;11636;52.086;5.090;2023-04-09T14:09:49;20.20;91.30
22940;DHT22;11636;52.086;5.090;2023-04-09T14:12:43;20.20;90.80
22940;DHT22;11636;52.086;5.090;2023-04-09T14:15:31;20.20;90.60
22940;DHT22;11636;52.086;5.090;2023-04-09T14:18:24;20.30;90.90
22940;DHT22;11636;52.086;5.090;2023-04-09T14:21:12;20.40;90.60
22940;DHT22;11636;52.086;5.090;2023-04-09T14:24:05;20.70;89.60
22940;DHT22;11636;52.086;5.090;2023-04-09T14:26:53;20.70;89.80
22940;DHT22;11636;52.086;5.090;2023-04-09T14:29:46;20.60;87.40
22940;DHT22;11636;52.086;5.090;2023-04-09T14:32:33;20.50;87.00
22940;DHT22;11636;52.086;5.090;2023-04-09T14:35:27;20.40;88.60
22940;DHT22;11636;52.086;5.090;2023-04-09T14:38:15;20.40;87.50
22940;DHT22;11636;52.086;5.090;2023-04-09T14:41:09;20.40;88.40
22940;DHT22;11636;52.086;5.090;2023-04-09T14:44:03;20.20;86.00
22940;DHT22;11636;52.086;5.090;2023-04-09T14:46:51;19.90;87.10
22940;DHT22;11636;52.086;5.090;2023-04-09T14:49:46;19.60;86.90
22940;DHT22;11636;52.086;5.090;2023-04-09T14:52:34;19.20;88.10
22940;DHT22;11636;52.086;5.090;2023-04-09T14:55:28;18.80;89.10
22940;DHT22;11636;52.086;5.090;2023-04-09T14:58:28;18.50;90.30
22940;DHT22;11636;52.086;5.090;2023-04-09T15:01:21;18.60;90.90
22940;DHT22;11636;52.086;5.090;2023-04-09T15:04:18;18.90;90.50
22940;DHT22;11636;52.086;5.090;2023-04-09T15:07:13;19.00;89.60
22940;DHT22;11636;52.086;5.090;2023-04-09T15:10:00;19.00;89.50
22940;DHT22;11636;52.086;5.090;2023-04-09T15:12:53;19.00;89.50
22940;DHT22;11636;52.086;5.090;2023-04-09T15:15:41;19.00;89.30
22940;DHT22;11636;52.086;5.090;2023-04-09T15:18:36;19.00;89.60
22940;DHT22;11636;52.086;5.090;2023-04-09T15:21:23;18.90;88.30
22940;DHT22;11636;52.086;5.090;2023-04-09T15:24:18;18.90;88.00
22940;DHT22;11636;52.086;5.090;2023-04-09T15:27:12;18.70;88.20
22940;DHT22;11636;52.086;5.090;2023-04-09T15:30:00;18.40;88.70
22940;DHT22;11636;52.086;5.090;2023-04-09T15:32:53;18.20;89.90
22940;DHT22;11636;52.086;5.090;2023-04-09T15:35:54;18.30;90.00
22940;DHT22;11636;52.086;5.090;2023-04-09T15:38:41;18.40;89.90
22940;DHT22;11636;52.086;5.090;2023-04-09T15:41:34;18.50;89.20
22940;DHT22;11636;52.086;5.090;2023-04-09T15:44:28;18.60;88.80
22940;DHT22;11636;52.086;5.090;2023-04-09T15:47:16;18.60;88.60
22940;DHT22;11636;52.086;5.090;2023-04-09T15:50:10;18.50;89.00
22940;DHT22;11636;52.086;5.090;2023-04-09T15:53:03;18.40;88.30
22940;DHT22;11636;52.086;5.090;2023-04-09T15:55:57;18.20;88.00
22940;DHT22;11636;52.086;5.090;2023-04-09T15:58:45;18.00;88.60
22940;DHT22;11636;52.086;5.090;2023-04-09T16:01:39;17.80;88.70
22940;DHT22;11636;52.086;5.090;2023-04-09T16:04:26;17.60;89.60
22940;DHT22;11636;52.086;5.090;2023-04-09T16:07:20;17.50;90.20
22940;DHT22;11636;52.086;5.090;2023-04-09T16:10:13;17.50;90.30
22940;DHT22;11636;52.086;5.090;2023-04-09T16:13:01;17.40;90.10
22940;DHT22;11636;52.086;5.090;2023-04-09T16:15:56;17.40;90.60
22940;DHT22;11636;52.086;5.090;2023-04-09T16:18:50;17.30;90.60
22940;DHT22;11636;52.086;5.090;2023-04-09T16:21:44;17.20;90.60
22940;DHT22;11636;52.086;5.090;2023-04-09T16:24:31;17.00;90.70
22940;DHT22;11636;52.086;5.090;2023-04-09T16:27:24;16.90;90.90
22940;DHT22;11636;52.086;5.090;2023-04-09T16:30:12;16.70;90.80
22940;DHT22;11636;52.086;5.090;2023-04-09T16:33:06;16.60;91.10
22940;DHT22;11636;52.086;5.090;2023-04-09T16:35:56;16.50;91.50
22940;DHT22;11636;52.086;5.090;2023-04-09T16:38:50;16.50;91.70
22940;DHT22;11636;52.086;5.090;2023-04-09T16:41:43;16.40;91.90
22940;DHT22;11636;52.086;5.090;2023-04-09T16:44:31;16.40;92.10
22940;DHT22;11636;52.086;5.090;2023-04-09T16:47:25;16.30;92.20
22940;DHT22;11636;52.086;5.090;2023-04-09T16:50:12;16.30;92.40
22940;DHT22;11636;52.086;5.090;2023-04-09T16:53:06;16.30;92.40
22940;DHT22;11636;52.086;5.090;2023-04-09T16:55:53;16.20;92.60
22940;DHT22;11636;52.086;5.090;2023-04-09T16:58:47;16.20;92.80
22940;DHT22;11636;52.086;5.090;2023-04-09T17:01:34;16.10;93.00
22940;DHT22;11636;52.086;5.090;2023-04-09T17:04:28;15.90;92.90
22940;DHT22;11636;52.086;5.090;2023-04-09T17:07:15;15.80;93.30
22940;DHT22;11636;52.086;5.090;2023-04-09T17:10:09;15.70;93.50
22940;DHT22;11636;52.086;5.090;2023-04-09T17:12:56;15.60;93.80
22940;DHT22;11636;52.086;5.090;2023-04-09T17:15:50;15.60;94.20
22940;DHT22;11636;52.086;5.090;2023-04-09T17:18:45;15.50;94.40
22940;DHT22;11636;52.086;5.090;2023-04-09T17:21:39;15.40;94.60
22940;DHT22;11636;52.086;5.090;2023-04-09T17:24:26;15.30;94.80
22940;DHT22;11636;52.086;5.090;2023-04-09T17:27:20;15.30;94.90
22940;DHT22;11636;52.086;5.090;2023-04-09T17:30:08;15.10;95.00
22940;DHT22;11636;52.086;5.090;2023-04-09T17:33:02;15.00;95.20
22940;DHT22;11636;52.086;5.090;2023-04-09T17:35:56;15.00;95.40
22940;DHT22;11636;52.086;5.090;2023-04-09T17:38:44;14.90;95.60
22940;DHT22;11636;52.086;5.090;2023-04-09T17:41:38;14.80;95.80
22940;DHT22;11636;52.086;5.090;2023-04-09T17:44:32;14.70;96.20
22940;DHT22;11636;52.086;5.090;2023-04-09T17:47:28;14.70;96.60
22940;DHT22;11636;52.086;5.090;2023-04-09T17:50:15;14.60;96.80
22940;DHT22;11636;52.086;5.090;2023-04-09T17:53:09;14.50;97.00
22940;DHT22;11636;52.086;5.090;2023-04-09T17:55:56;14.50;97.20
22940;DHT22;11636;52.086;5.090;2023-04-09T17:58:50;14.40;97.50
22940;DHT22;11636;52.086;5.090;2023-04-09T18:01:44;14.30;97.90
22940;DHT22;11636;52.086;5.090;2023-04-09T18:04:32;14.10;98.40
22940;DHT22;11636;52.086;5.090;2023-04-09T18:07:27;14.00;98.80
22940;DHT22;11636;52.086;5.090;2023-04-09T18:10:25;13.90;99.40
22940;DHT22;11636;52.086;5.090;2023-04-09T18:13:12;13.80;99.90
22940;DHT22;11636;52.086;5.090;2023-04-09T18:16:10;13.70;99.90
22940;DHT22;11636;52.086;5.090;2023-04-09T18:19:05;13.60;99.90
22940;DHT22;11636;52.086;5.090;2023-04-09T18:21:52;13.50;99.90
22940;DHT22;11636;52.086;5.090;2023-04-09T18:24:46;13.40;99.90
22940;DHT22;11636;52.086;5.090;2023-04-09T18:27:33;13.30;99.90
22940;DHT22;11636;52.086;5.090;2023-04-09T18:30:27;13.20;99.90